Latest Weather Observations for Wudinna Airport

IDS60801

Issued at 7:31 am CDT Tuesday 6 December 2022 (issued every 10 minutes, with the page automatically refreshed every 10 minutes)

About weather observations | Map of weather stations | Latest weather observations for SA | Other Formats
Station Details ID: 018083 Name: WUDINNA AERO Lat: -33.04 Lon: 135.45 Height: 86.4 m
Data from the previous 72 hours. | See also: Recent months at Wudinna Airport
Date/Time
CDT
Temp
°C
App
Temp
°C
Dew
Point
°C
Rel
Hum
%
Delta-T
°C
Wind Press
QNH
hPa
Press
MSL
hPa
Rain since
9am
mm
Dir  Spd
km/h
Gust
km/h
Spd
kts
Gust
kts
06/07:30am 14.2 13.3 11.4 83 1.5 SSE 7 9 4 5 1010.3 1009.9 0.6
06/07:00am 13.9 13.0 11.2 84 1.4 SE 7 11 4 6 1010.0 1009.6 0.6
06/06:34am 13.7 12.4 11.2 85 1.3 S 9 22 5 12 1008.4 1008.0 0.6
06/06:30am 13.6 12.6 11.1 85 1.3 SSW 7 9 4 5 1010.5 1010.1 0.6
06/06:00am 13.5 12.1 10.9 84 1.4 SE 9 11 5 6 1009.8 1009.4 0.6
06/05:30am 13.6 12.6 11.0 84 1.4 ESE 7 11 4 6 1009.5 1009.1 0.6
06/05:00am 13.7 12.3 10.9 83 1.5 ESE 9 15 5 8 1009.7 1009.3 0.6
06/04:30am 13.8 12.3 10.4 80 1.8 E 9 15 5 8 1010.3 1009.9 0.6
06/04:00am 13.7 11.8 10.5 81 1.7 E 11 20 6 11 1009.0 1008.6 0.6
06/03:30am 13.8 11.9 10.4 80 1.8 SE 11 17 6 9 1010.4 1010.0 0.6
06/03:00am 13.8 12.0 10.8 82 1.6 ESE 11 17 6 9 1010.5 1010.1 0.6
06/02:30am 14.2 12.8 11.0 81 1.7 ESE 9 13 5 7 1010.8 1010.4 0.6
06/02:00am 14.3 12.5 10.7 79 1.9 ESE 11 17 6 9 1010.8 1010.4 0.6
06/01:30am 14.4 12.2 10.8 79 1.9 E 13 19 7 10 1011.1 1010.7 0.6
06/01:00am 14.9 12.7 10.9 77 2.1 SE 13 17 7 9 1012.7 1012.4 0.6
06/12:30am 15.4 12.8 10.6 73 2.5 SE 15 20 8 11 1013.6 1013.3 0.6
06/12:00am 15.4 13.1 10.6 73 2.5 SE 13 19 7 10 1013.9 1013.6 0.6
 
Date/Time
CDT
Temp
°C
App
Temp
°C
Dew
Point
°C
Rel
Hum
%
Delta-T
°C
Wind Press
QNH
hPa
Press
MSL
hPa
Rain since
9am
mm
Dir  Spd
km/h
Gust
km/h
Spd
kts
Gust
kts
05/11:30pm 16.0 13.2 10.1 68 3.1 ESE 15 20 8 11 1013.9 1013.6 0.6
05/11:00pm 16.4 14.5 10.5 68 3.1 E 11 17 6 9 1013.9 1013.6 0.6
05/10:30pm 16.7 14.3 10.1 65 3.5 ESE 13 20 7 11 1014.4 1014.1 0.6
05/10:00pm 16.7 14.4 10.3 66 3.4 SE 13 19 7 10 1014.5 1014.2 0.6
05/09:56pm 16.6 14.3 10.5 67 3.3 SE 13 24 7 13 1014.0 1013.7 0.6
05/09:30pm 16.3 12.1 11.0 71 2.9 ESE 24 39 13 21 1012.0 1011.7 0.6
05/09:00pm 16.2 11.9 10.9 71 2.8 ESE 24 37 13 20 1012.6 1012.3 0.6
05/08:30pm 17.3 12.5 10.4 64 3.7 SE 26 37 14 20 1013.7 1013.4 0.2
05/08:00pm 19.2 15.3 9.4 53 5.2 SE 20 32 11 17 1015.0 1014.7 0.0
05/07:30pm 21.5 15.8 5.0 34 8.2 SE 24 32 13 17 1014.6 1014.3 0.0
05/07:00pm 22.1 16.4 5.1 33 8.5 SSE 24 33 13 18 1013.7 1013.4 0.0
05/06:30pm 23.0 17.3 5.0 31 9.0 SE 24 32 13 17 1012.9 1012.6 0.0
05/06:00pm 24.5 17.7 5.3 29 9.7 SSE 30 39 16 21 1012.6 1012.3 0.0
05/05:30pm 24.5 17.6 4.8 28 9.9 SE 30 43 16 23 1012.1 1011.8 0.0
05/05:00pm 25.2 19.1 4.9 27 10.3 SE 26 39 14 21 1012.1 1011.8 0.0
05/04:30pm 26.0 20.4 5.6 27 10.5 ESE 24 35 13 19 1012.5 1012.2 0.0
05/04:00pm 26.2 20.2 5.2 26 10.8 SE 26 37 14 20 1012.7 1012.4 0.0
05/03:30pm 25.8 20.4 6.4 29 10.1 ESE 24 37 13 20 1013.3 1013.0 0.0
05/03:00pm 25.2 20.8 6.4 30 9.8 ESE 19 32 10 17 1014.3 1014.0 0.0
05/02:30pm 24.5 19.6 6.7 32 9.3 SE 22 32 12 17 1014.3 1014.0 0.0
05/02:00pm 24.4 20.3 6.2 31 9.4 SE 17 24 9 13 1015.9 1015.6 0.0
05/01:30pm 21.5 15.8 6.6 38 7.6 SE 26 35 14 19 1015.3 1015.0 0.0
05/01:00pm 21.2 17.4 7.4 41 7.1 SSE 17 24 9 13 1016.7 1016.4 0.0
05/12:30pm 21.0 17.7 8.0 43 6.8 SE 15 20 8 11 1017.3 1017.0 0.0
05/12:00pm 20.6 16.8 7.6 43 6.7 SSE 17 26 9 14 1017.2 1016.9 0.0
05/11:30am 21.2 17.1 7.8 42 7.0 SSE 19 30 10 16 1017.8 1017.5 0.0
05/11:00am 20.2 16.4 7.6 44 6.5 S 17 26 9 14 1017.6 1017.3 0.0
05/10:30am 20.7 16.4 8.0 44 6.6 SSE 20 30 11 16 1017.5 1017.2 0.0
05/10:00am 20.3 15.8 8.6 47 6.2 SSE 22 35 12 19 1017.1 1016.8 0.0
05/09:30am 19.4 14.0 9.6 53 5.2 SE 28 39 15 21 1016.0 1015.7 0.0
05/09:00am 18.8 14.0 10.4 58 4.5 SE 26 41 14 22 1016.0 1015.7 0.0
05/08:30am 17.5 12.7 10.4 63 3.8 SE 26 35 14 19 1015.5 1015.2 0.0
05/08:00am 17.0 12.3 10.8 67 3.3 SSE 26 35 14 19 1015.1 1014.8 0.0
05/07:30am 16.1 12.7 10.6 70 2.9 SSE 19 26 10 14 1015.0 1014.7 0.0
05/07:00am 15.2 12.6 10.8 75 2.3 SSE 15 22 8 12 1014.8 1014.5 0.0
05/06:30am 14.8 12.7 11.0 78 2.0 SE 13 20 7 11 1014.6 1014.3 0.0
05/06:00am 14.7 12.5 10.9 78 2.0 SSE 13 17 7 9 1014.7 1014.4 0.0
05/05:30am 15.1 12.6 11.1 77 2.1 SSE 15 22 8 12 1014.5 1014.2 0.0
05/05:00am 15.3 12.4 11.1 76 2.2 SE 17 24 9 13 1014.2 1013.9 0.0
05/04:30am 15.5 12.6 11.1 75 2.4 SSE 17 30 9 16 1014.0 1013.7 0.0
05/04:00am 15.7 13.0 11.7 77 2.2 SE 17 26 9 14 1014.2 1013.9 0.0
05/03:30am 16.2 13.0 11.4 73 2.6 SSE 19 28 10 15 1014.4 1014.1 0.0
05/03:00am 15.8 12.6 11.4 75 2.4 SSE 19 26 10 14 1014.5 1014.2 0.0
05/02:30am 16.1 12.0 11.5 74 2.5 SSE 24 32 13 17 1014.9 1014.6 0.0
05/02:00am 16.3 13.5 11.5 73 2.6 SSE 17 20 9 11 1015.3 1015.0 0.0
05/01:30am 16.8 14.4 11.5 71 2.9 SE 15 20 8 11 1015.3 1015.0 0.0
05/01:00am 17.1 15.6 11.8 71 2.9 SE 11 15 6 8 1016.0 1015.7 0.0
05/12:30am 17.1 15.2 11.8 71 2.9 SE 13 17 7 9 1016.5 1016.2 0.0
05/12:00am 17.1 14.8 11.8 71 2.9 SSE 15 20 8 11 1016.6 1016.3 0.0
 
Date/Time
CDT
Temp
°C
App
Temp
°C
Dew
Point
°C
Rel
Hum
%
Delta-T
°C
Wind Press
QNH
hPa
Press
MSL
hPa
Rain since
9am
mm
Dir  Spd
km/h
Gust
km/h
Spd
kts
Gust
kts
04/11:30pm 17.1 14.1 11.8 71 2.9 S 19 24 10 13 1017.4 1017.1 0.0
04/11:00pm 17.2 13.7 12.1 72 2.8 SSW 22 28 12 15 1017.6 1017.3 0.0
04/10:30pm 17.4 14.9 12.3 72 2.8 SSW 17 22 9 12 1017.5 1017.2 0.0
04/10:00pm 17.6 14.5 12.3 71 2.9 SSW 20 26 11 14 1017.0 1016.7 0.0
04/09:30pm 17.7 13.4 12.2 70 3.0 SSW 26 33 14 18 1017.0 1016.7 0.0
04/09:00pm 18.3 13.6 12.1 67 3.4 SSW 28 37 15 20 1016.6 1016.3 0.0
04/08:30pm 18.6 13.7 12.4 67 3.5 SSW 30 37 16 20 1016.0 1015.7 0.0
04/08:00pm 19.2 13.8 12.2 64 3.9 SW 32 39 17 21 1015.4 1015.1 0.0
04/07:30pm 20.0 15.0 12.3 61 4.3 SW 30 39 16 21 1014.8 1014.5 0.0
04/07:00pm 20.6 15.1 12.3 59 4.7 SW 33 41 18 22 1013.7 1013.4 0.0
04/06:30pm 21.5 16.8 12.1 55 5.3 SSW 28 35 15 19 1012.6 1012.3 0.0
04/06:00pm 23.2 17.5 11.3 47 6.7 SSW 32 41 17 22 1012.2 1011.9 0.0
04/05:30pm 24.8 18.3 9.1 37 8.6 SW 33 44 18 24 1011.6 1011.3 0.0
04/05:00pm 27.6 20.5 6.4 26 11.2 SW 33 44 18 24 1011.5 1011.1 0.0
04/04:30pm 29.8 23.2 9.9 29 11.3 SSW 35 46 19 25 1011.3 1010.9 0.0
04/04:00pm 29.8 22.4 9.9 29 11.3 SW 39 46 21 25 1011.0 1010.6 0.0
04/03:30pm 34.2 26.9 7.3 19 14.9 WSW 35 50 19 27 1010.4 1010.0 0.0
04/03:00pm 37.1 29.0 7.1 16 16.8 WSW 39 52 21 28 1009.9 1009.5 0.0
04/02:30pm 38.9 32.3 4.4 12 18.8 W 28 48 15 26 1009.7 1009.3 0.0
04/02:04pm 38.2 30.6 2.6 11 18.7 W 32 50 17 27 1010.0 1009.6 0.0
04/02:00pm 38.6 30.8 1.6 10 19.2 W 32 43 17 23 1010.1 1009.7 0.0
04/01:40pm 38.4 30.8 2.8 11 18.8 W 32 57 17 31 1010.1 1009.7 0.0
04/01:30pm 38.6 31.8 2.9 11 18.9 WNW 28 41 15 22 1010.1 1009.7 0.0
04/01:00pm 38.8 32.7 0.3 9 19.6 WNW 22 33 12 18 1010.2 1009.8 0.0
04/12:30pm 38.4 31.7 1.4 10 19.2 WNW 26 41 14 22 1010.3 1009.9 0.0
04/12:00pm 37.8 30.4 -0.5 9 19.2 WNW 28 41 15 22 1010.8 1010.4 0.0
04/11:30am 37.1 30.5 1.8 11 18.2 WNW 26 39 14 21 1011.1 1010.7 0.0
04/11:00am 36.5 29.4 1.3 11 18.0 NW 28 41 15 22 1011.2 1010.8 0.0
04/10:30am 35.9 28.7 0.9 11 17.7 NW 28 39 15 21 1011.3 1010.9 0.0
04/10:00am 34.8 27.1 0.0 11 17.2 NNW 30 39 16 21 1011.3 1010.9 0.0
04/09:30am 33.9 27.4 0.5 12 16.6 NNW 24 33 13 18 1011.6 1011.3 0.0
04/09:00am 31.8 25.5 -1.1 12 15.7 N 22 32 12 17 1011.6 1011.3 0.0
04/08:30am 30.3 24.3 -1.2 13 14.8 N 20 32 11 17 1011.4 1011.0 0.0
04/08:00am 28.7 22.9 -1.4 14 13.9 N 19 24 10 13 1011.1 1010.7 0.0
04/07:30am 27.4 21.3 -2.4 14 13.4 N 20 26 11 14 1010.4 1010.0 0.0
04/07:00am 26.1 20.0 -2.5 15 12.7 N 20 24 11 13 1010.3 1009.9 0.0
04/06:30am 25.2 19.0 -3.2 15 12.4 N 20 28 11 15 1010.0 1009.6 0.0
04/06:00am 24.4 18.7 -3.9 15 12.1 N 17 20 9 11 1009.7 1009.3 0.0
04/05:30am 23.3 19.0 -4.8 15 11.7 NNE 9 13 5 7 1009.5 1009.1 0.0
04/05:00am 22.5 18.6 -4.5 16 11.2 NNE 7 13 4 7 1009.2 1008.8 0.0
04/04:30am 23.9 18.0 -5.2 14 12.1 NNE 17 24 9 13 1008.9 1008.5 0.0
04/04:00am 23.4 18.0 -4.7 15 11.7 NE 15 20 8 11 1009.0 1008.6 0.0
04/03:30am 22.0 16.6 -4.1 17 10.9 NE 15 17 8 9 1009.0 1008.6 0.0
04/03:00am 23.0 16.8 -5.0 15 11.6 NE 19 22 10 12 1008.9 1008.5 0.0
04/02:30am 22.9 17.1 -4.2 16 11.4 NNE 17 20 9 11 1009.6 1009.2 0.0
04/02:00am 22.5 17.3 -3.0 18 10.9 NE 15 20 8 11 1009.8 1009.4 0.0
04/01:30am 22.0 17.3 -2.0 20 10.4 NE 13 17 7 9 1009.9 1009.5 0.0
04/01:00am 23.8 18.6 -2.7 17 11.5 ENE 15 20 8 11 1010.3 1009.9 0.0
04/12:30am 24.7 19.4 -3.6 15 12.2 ENE 15 20 8 11 1010.5 1010.1 0.0
04/12:00am 25.8 19.2 -3.7 14 12.8 E 22 33 12 18 1010.6 1010.2 0.0
 
Date/Time
CDT
Temp
°C
App
Temp
°C
Dew
Point
°C
Rel
Hum
%
Delta-T
°C
Wind Press
QNH
hPa
Press
MSL
hPa
Rain since
9am
mm
Dir  Spd
km/h
Gust
km/h
Spd
kts
Gust
kts
03/11:30pm 25.7 19.6 -3.8 14 12.8 E 19 28 10 15 1010.9 1010.5 0.0
03/11:00pm 26.2 20.9 -3.4 14 13.0 ESE 15 19 8 10 1011.4 1011.0 0.0
03/10:30pm 27.3 21.6 -3.5 13 13.6 SE 17 26 9 14 1011.3 1010.9 0.0
03/10:00pm 28.4 22.1 -3.7 12 14.2 SE 20 30 11 16 1011.2 1010.8 0.0
03/09:30pm 29.3 22.7 -3.0 12 14.6 SSE 22 33 12 18 1010.7 1010.3 0.0
03/09:00pm 30.5 22.8 -3.3 11 15.4 S 28 37 15 20 1010.3 1009.9 0.0
03/08:30pm 31.1 25.1 -1.6 12 15.4 S 20 28 11 15 1010.1 1009.7 0.0
03/08:00pm 32.7 25.6 -1.6 11 16.3 SSW 26 37 14 20 1009.7 1009.3 0.0
03/07:30pm 34.3 26.9 -0.4 11 17.0 SSW 28 37 15 20 1009.2 1008.8 0.0
03/07:24pm 34.4 27.4 -0.3 11 17.0 SSW 26 37 14 20 1009.2 1008.8 0.0
03/07:00pm 36.4 32.7 -3.1 8 18.8 SSW 7 11 4 6 1008.8 1008.4 0.0
03/06:30pm 36.6 34.2 -3.0 8 18.9 CALM 0 6 0 3 1008.7 1008.3 0.0
03/06:00pm 36.7 32.2 -2.9 8 19.0 SSW 11 20 6 11 1008.8 1008.4 0.0
03/05:30pm 36.6 31.9 -4.7 7 19.2 S 11 19 6 10 1008.9 1008.5 0.0
03/05:00pm 36.5 32.4 -3.0 8 18.8 ENE 9 17 5 9 1009.1 1008.7 0.0
03/04:30pm 36.8 31.6 -2.8 8 19.0 E 15 20 8 11 1009.2 1008.8 0.0
03/04:00pm 36.4 32.5 -4.9 7 19.1 SSW 7 19 4 10 1009.5 1009.1 0.0
03/03:30pm 36.7 31.5 -2.9 8 19.0 ESE 15 24 8 13 1009.7 1009.3 0.0
03/03:00pm 37.4 34.0 -0.8 9 19.0 SSW 7 15 4 8 1010.0 1009.6 0.0
03/02:30pm 37.1 34.3 1.8 11 18.3 W 6 13 3 7 1010.2 1009.8 0.0
03/02:00pm 36.3 32.6 -0.2 10 18.2 S 9 13 5 7 1010.5 1010.1 0.0
03/01:30pm 35.3 30.5 -2.3 9 18.0 ENE 13 19 7 10 1010.9 1010.5 0.0
03/01:00pm 35.4 30.8 -0.8 10 17.8 NNE 13 24 7 13 1011.1 1010.7 0.0
03/12:30pm 34.3 29.6 -1.7 10 17.3 E 13 22 7 12 1011.4 1011.0 0.0
03/12:00pm 34.9 30.1 0.1 11 17.3 NNE 15 35 8 19 1011.8 1011.5 0.0
03/11:30am 34.1 28.4 -0.5 11 16.9 NNE 19 26 10 14 1012.0 1011.7 0.0
03/11:00am 34.2 28.5 0.8 12 16.7 N 20 32 11 17 1011.9 1011.6 0.0
03/10:30am 33.0 26.3 -1.4 11 16.4 N 24 35 13 19 1012.1 1011.8 0.0
03/10:00am 32.4 25.3 1.5 14 15.4 NNE 28 35 15 19 1012.2 1011.9 0.0
03/09:30am 31.8 25.6 2.0 15 15.0 N 24 33 13 18 1012.2 1011.9 0.0
03/09:00am 29.7 23.0 3.6 19 13.3 NNE 28 39 15 21 1012.1 1011.8 0.0
03/08:30am 27.5 20.5 3.9 22 11.9 NNE 30 41 16 22 1011.9 1011.6 0.0
03/08:06am 26.6 20.0 4.4 24 11.2 NNE 28 46 15 25 1011.8 1011.5 0.0
03/08:00am 26.6 19.3 4.4 24 11.2 NNE 32 46 17 25 1011.7 1011.4 0.0

Other formats

Comma delimited format used in spreadsheet applications
http://www.bom.gov.au/fwo/IDS60801/IDS60801.95654.axf

JavaScript Object Notation format (JSON) in row-major order
http://www.bom.gov.au/fwo/IDS60801/IDS60801.95654.json

Data quality

Most of these data are generated automatically and are frequently updated. Quality checks on data are not normally performed. It is possible for incorrect values to appear. Refer to information at About Latest Weather Observations and please check the disclaimer before using these data.